sensor_id;sensor_type;location;lat;lon;timestamp;pressure;altitude;pressure_sealevel;temperature;humidity
53246;BME280;39569;51.090;-1.786;2022-08-07T00:02:17;102084.53;;;14.16;71.86
53246;BME280;39569;51.090;-1.786;2022-08-07T00:04:44;102081.84;;;14.16;71.91
53246;BME280;39569;51.090;-1.786;2022-08-07T00:07:10;102079.00;;;14.17;71.68
53246;BME280;39569;51.090;-1.786;2022-08-07T00:09:37;102082.84;;;14.15;72.09
53246;BME280;39569;51.090;-1.786;2022-08-07T00:12:04;102092.69;;;13.98;72.86
53246;BME280;39569;51.090;-1.786;2022-08-07T00:14:31;102079.31;;;14.06;72.57
53246;BME280;39569;51.090;-1.786;2022-08-07T00:16:59;102082.97;;;13.97;73.32
53246;BME280;39569;51.090;-1.786;2022-08-07T00:19:27;102077.28;;;14.08;72.55
53246;BME280;39569;51.090;-1.786;2022-08-07T00:21:55;102084.00;;;14.04;72.84
53246;BME280;39569;51.090;-1.786;2022-08-07T00:24:22;102076.06;;;13.95;73.34
53246;BME280;39569;51.090;-1.786;2022-08-07T00:26:49;102074.41;;;13.94;73.17
53246;BME280;39569;51.090;-1.786;2022-08-07T00:29:16;102083.94;;;13.88;73.49
53246;BME280;39569;51.090;-1.786;2022-08-07T00:31:46;102076.06;;;13.95;73.59
53246;BME280;39569;51.090;-1.786;2022-08-07T00:34:13;102067.72;;;13.98;73.53
53246;BME280;39569;51.090;-1.786;2022-08-07T00:36:42;102067.50;;;13.91;74.31
53246;BME280;39569;51.090;-1.786;2022-08-07T00:39:09;102079.41;;;13.80;74.68
53246;BME280;39569;51.090;-1.786;2022-08-07T00:41:38;102065.97;;;13.80;74.10
53246;BME280;39569;51.090;-1.786;2022-08-07T00:44:05;102069.63;;;13.79;74.34
53246;BME280;39569;51.090;-1.786;2022-08-07T00:46:32;102059.03;;;13.70;74.75
53246;BME280;39569;51.090;-1.786;2022-08-07T00:49:00;102060.13;;;13.51;75.35
53246;BME280;39569;51.090;-1.786;2022-08-07T00:51:28;102062.44;;;13.38;76.39
53246;BME280;39569;51.090;-1.786;2022-08-07T00:53:56;102059.56;;;13.40;76.57
53246;BME280;39569;51.090;-1.786;2022-08-07T00:56:23;102062.78;;;13.43;76.55
53246;BME280;39569;51.090;-1.786;2022-08-07T00:58:50;102060.78;;;13.53;76.07
53246;BME280;39569;51.090;-1.786;2022-08-07T01:01:18;102056.72;;;13.41;75.45
53246;BME280;39569;51.090;-1.786;2022-08-07T01:03:45;102059.09;;;13.44;75.97
53246;BME280;39569;51.090;-1.786;2022-08-07T01:06:13;102050.63;;;13.31;76.58
53246;BME280;39569;51.090;-1.786;2022-08-07T01:08:40;102053.22;;;13.15;76.26
53246;BME280;39569;51.090;-1.786;2022-08-07T01:11:09;102055.56;;;13.10;77.55
53246;BME280;39569;51.090;-1.786;2022-08-07T01:13:36;102056.69;;;13.08;77.72
53246;BME280;39569;51.090;-1.786;2022-08-07T01:16:04;102057.75;;;13.15;77.54
53246;BME280;39569;51.090;-1.786;2022-08-07T01:18:31;102058.59;;;13.15;77.84
53246;BME280;39569;51.090;-1.786;2022-08-07T01:21:08;102058.84;;;13.04;77.72
53246;BME280;39569;51.090;-1.786;2022-08-07T01:23:36;102047.78;;;13.07;77.88
53246;BME280;39569;51.090;-1.786;2022-08-07T01:26:04;102045.13;;;13.07;78.19
53246;BME280;39569;51.090;-1.786;2022-08-07T01:28:32;102044.81;;;13.10;78.04
53246;BME280;39569;51.090;-1.786;2022-08-07T01:30:59;102045.59;;;13.03;78.31
53246;BME280;39569;51.090;-1.786;2022-08-07T01:33:26;102042.63;;;12.88;78.10
53246;BME280;39569;51.090;-1.786;2022-08-07T01:35:55;102044.47;;;12.88;78.26
53246;BME280;39569;51.090;-1.786;2022-08-07T01:38:23;102045.59;;;12.85;78.49
53246;BME280;39569;51.090;-1.786;2022-08-07T01:40:52;102045.88;;;13.00;78.21
53246;BME280;39569;51.090;-1.786;2022-08-07T01:43:19;102037.97;;;12.90;78.47
53246;BME280;39569;51.090;-1.786;2022-08-07T01:45:47;102040.94;;;12.87;78.40
53246;BME280;39569;51.090;-1.786;2022-08-07T01:48:14;102038.06;;;12.80;78.80
53246;BME280;39569;51.090;-1.786;2022-08-07T01:50:41;102038.22;;;12.79;79.15
53246;BME280;39569;51.090;-1.786;2022-08-07T01:53:13;102039.78;;;12.90;78.56
53246;BME280;39569;51.090;-1.786;2022-08-07T01:55:46;102045.31;;;12.88;78.36
53246;BME280;39569;51.090;-1.786;2022-08-07T01:58:19;102045.16;;;12.90;78.54
53246;BME280;39569;51.090;-1.786;2022-08-07T02:00:50;102037.72;;;12.83;78.46
53246;BME280;39569;51.090;-1.786;2022-08-07T02:03:20;102035.66;;;12.77;78.92
53246;BME280;39569;51.090;-1.786;2022-08-07T02:05:52;102029.47;;;12.77;79.01
53246;BME280;39569;51.090;-1.786;2022-08-07T02:08:23;102035.66;;;12.77;79.20
53246;BME280;39569;51.090;-1.786;2022-08-07T02:10:54;102038.88;;;12.81;78.45
53246;BME280;39569;51.090;-1.786;2022-08-07T02:13:26;102048.72;;;12.72;78.71
53246;BME280;39569;51.090;-1.786;2022-08-07T02:15:56;102047.97;;;12.62;79.44
53246;BME280;39569;51.090;-1.786;2022-08-07T02:18:27;102044.06;;;12.57;79.79
53246;BME280;39569;51.090;-1.786;2022-08-07T02:20:56;102048.88;;;12.53;79.58
53246;BME280;39569;51.090;-1.786;2022-08-07T02:23:25;102047.22;;;12.52;79.42
53246;BME280;39569;51.090;-1.786;2022-08-07T02:25:56;102042.63;;;12.62;79.23
53246;BME280;39569;51.090;-1.786;2022-08-07T02:28:26;102040.22;;;12.59;78.56
53246;BME280;39569;51.090;-1.786;2022-08-07T02:30:54;102041.84;;;12.52;79.44
53246;BME280;39569;51.090;-1.786;2022-08-07T02:33:24;102039.84;;;12.54;79.67
53246;BME280;39569;51.090;-1.786;2022-08-07T02:35:51;102038.63;;;12.49;79.51
53246;BME280;39569;51.090;-1.786;2022-08-07T02:38:22;102035.59;;;12.44;80.11
53246;BME280;39569;51.090;-1.786;2022-08-07T02:40:51;102039.09;;;12.44;80.14
53246;BME280;39569;51.090;-1.786;2022-08-07T02:43:20;102032.59;;;12.47;79.57
53246;BME280;39569;51.090;-1.786;2022-08-07T02:45:48;102035.47;;;12.53;79.14
53246;BME280;39569;51.090;-1.786;2022-08-07T02:48:16;102036.94;;;12.48;79.42
53246;BME280;39569;51.090;-1.786;2022-08-07T02:50:47;102039.94;;;12.45;79.03
53246;BME280;39569;51.090;-1.786;2022-08-07T02:53:20;102042.25;;;12.40;79.08
53246;BME280;39569;51.090;-1.786;2022-08-07T02:55:49;102044.91;;;12.40;78.90
53246;BME280;39569;51.090;-1.786;2022-08-07T02:58:20;102046.22;;;12.36;79.25
53246;BME280;39569;51.090;-1.786;2022-08-07T03:00:49;102044.59;;;12.43;78.92
53246;BME280;39569;51.090;-1.786;2022-08-07T03:03:18;102038.41;;;12.42;78.61
53246;BME280;39569;51.090;-1.786;2022-08-07T03:05:46;102042.91;;;12.24;78.98
53246;BME280;39569;51.090;-1.786;2022-08-07T03:08:13;102039.78;;;12.11;79.31
53246;BME280;39569;51.090;-1.786;2022-08-07T03:10:40;102040.19;;;12.16;78.68
53246;BME280;39569;51.090;-1.786;2022-08-07T03:13:08;102035.44;;;12.10;78.88
53246;BME280;39569;51.090;-1.786;2022-08-07T03:15:37;102034.34;;;12.03;79.12
53246;BME280;39569;51.090;-1.786;2022-08-07T03:18:04;102036.47;;;12.00;78.87
53246;BME280;39569;51.090;-1.786;2022-08-07T03:20:32;102030.78;;;11.85;79.42
53246;BME280;39569;51.090;-1.786;2022-08-07T03:23:00;102034.84;;;11.71;79.66
53246;BME280;39569;51.090;-1.786;2022-08-07T03:25:28;102034.09;;;11.79;79.57
53246;BME280;39569;51.090;-1.786;2022-08-07T03:27:58;102036.31;;;11.83;79.42
53246;BME280;39569;51.090;-1.786;2022-08-07T03:30:26;102041.88;;;11.72;80.09
53246;BME280;39569;51.090;-1.786;2022-08-07T03:32:55;102041.56;;;11.75;79.74
53246;BME280;39569;51.090;-1.786;2022-08-07T03:35:24;102038.75;;;11.77;79.59
53246;BME280;39569;51.090;-1.786;2022-08-07T03:37:53;102040.56;;;11.76;79.81
53246;BME280;39569;51.090;-1.786;2022-08-07T03:40:21;102034.69;;;11.63;80.65
53246;BME280;39569;51.090;-1.786;2022-08-07T03:42:49;102033.16;;;11.61;80.40
53246;BME280;39569;51.090;-1.786;2022-08-07T03:45:17;102037.09;;;11.66;80.26
53246;BME280;39569;51.090;-1.786;2022-08-07T03:47:45;102032.88;;;11.64;79.92
53246;BME280;39569;51.090;-1.786;2022-08-07T03:50:14;102027.03;;;11.51;80.04
53246;BME280;39569;51.090;-1.786;2022-08-07T03:52:43;102027.25;;;11.57;79.92
53246;BME280;39569;51.090;-1.786;2022-08-07T03:55:10;102033.63;;;11.56;79.72
53246;BME280;39569;51.090;-1.786;2022-08-07T03:57:37;102025.28;;;11.59;79.57
53246;BME280;39569;51.090;-1.786;2022-08-07T04:00:06;102027.09;;;11.59;79.57
53246;BME280;39569;51.090;-1.786;2022-08-07T04:02:33;102028.94;;;11.68;79.32
53246;BME280;39569;51.090;-1.786;2022-08-07T04:05:00;102025.59;;;11.56;79.48
53246;BME280;39569;51.090;-1.786;2022-08-07T04:07:31;102026.13;;;11.60;79.43
53246;BME280;39569;51.090;-1.786;2022-08-07T04:09:59;102024.19;;;11.52;79.63
53246;BME280;39569;51.090;-1.786;2022-08-07T04:12:28;102022.38;;;11.53;79.59
53246;BME280;39569;51.090;-1.786;2022-08-07T04:14:57;102022.91;;;11.56;79.84
53246;BME280;39569;51.090;-1.786;2022-08-07T04:17:24;102023.13;;;11.45;79.44
53246;BME280;39569;51.090;-1.786;2022-08-07T04:19:51;102025.53;;;11.39;80.30
53246;BME280;39569;51.090;-1.786;2022-08-07T04:22:18;102027.78;;;11.43;80.38
53246;BME280;39569;51.090;-1.786;2022-08-07T04:24:47;102024.41;;;11.41;80.14
53246;BME280;39569;51.090;-1.786;2022-08-07T04:27:15;102025.69;;;11.37;80.29
53246;BME280;39569;51.090;-1.786;2022-08-07T04:29:42;102022.66;;;11.23;80.63
53246;BME280;39569;51.090;-1.786;2022-08-07T04:32:09;102028.69;;;11.25;80.73
53246;BME280;39569;51.090;-1.786;2022-08-07T04:34:37;102012.69;;;11.15;80.88
53246;BME280;39569;51.090;-1.786;2022-08-07T04:37:04;102026.44;;;11.20;80.25
53246;BME280;39569;51.090;-1.786;2022-08-07T04:39:31;102025.75;;;11.18;80.20
53246;BME280;39569;51.090;-1.786;2022-08-07T04:42:01;102026.19;;;11.14;80.08
53246;BME280;39569;51.090;-1.786;2022-08-07T04:44:28;102026.59;;;11.19;79.64
53246;BME280;39569;51.090;-1.786;2022-08-07T04:47:02;102031.94;;;11.19;79.24
53246;BME280;39569;51.090;-1.786;2022-08-07T04:49:38;102032.09;;;11.17;79.81
53246;BME280;39569;51.090;-1.786;2022-08-07T04:52:12;102027.44;;;11.19;80.04
53246;BME280;39569;51.090;-1.786;2022-08-07T04:54:44;102034.09;;;11.06;80.61
53246;BME280;39569;51.090;-1.786;2022-08-07T04:57:22;102041.53;;;11.12;80.51
53246;BME280;39569;51.090;-1.786;2022-08-07T04:59:55;102041.84;;;11.09;80.32
53246;BME280;39569;51.090;-1.786;2022-08-07T05:02:27;102045.50;;;11.08;79.79
53246;BME280;39569;51.090;-1.786;2022-08-07T05:04:59;102045.34;;;11.09;80.22
53246;BME280;39569;51.090;-1.786;2022-08-07T05:07:35;102045.78;;;11.14;79.35
53246;BME280;39569;51.090;-1.786;2022-08-07T05:10:07;102047.44;;;11.15;79.52
53246;BME280;39569;51.090;-1.786;2022-08-07T05:12:41;102047.41;;;11.25;79.46
53246;BME280;39569;51.090;-1.786;2022-08-07T05:15:25;102047.25;;;11.26;79.58
53246;BME280;39569;51.090;-1.786;2022-08-07T05:17:57;102052.47;;;11.28;79.77
53246;BME280;39569;51.090;-1.786;2022-08-07T05:20:30;102053.88;;;11.22;79.99
53246;BME280;39569;51.090;-1.786;2022-08-07T05:23:00;102055.56;;;11.33;79.34
53246;BME280;39569;51.090;-1.786;2022-08-07T05:25:30;102055.06;;;11.47;78.72
53246;BME280;39569;51.090;-1.786;2022-08-07T05:27:59;102056.41;;;11.60;78.09
53246;BME280;39569;51.090;-1.786;2022-08-07T05:30:27;102053.69;;;11.70;78.26
53246;BME280;39569;51.090;-1.786;2022-08-07T05:32:55;102054.81;;;11.77;77.60
53246;BME280;39569;51.090;-1.786;2022-08-07T05:35:24;102047.53;;;11.87;77.02
53246;BME280;39569;51.090;-1.786;2022-08-07T05:37:52;102053.84;;;11.96;76.87
53246;BME280;39569;51.090;-1.786;2022-08-07T05:40:19;102058.66;;;11.92;77.29
53246;BME280;39569;51.090;-1.786;2022-08-07T05:42:46;102062.00;;;12.21;75.81
53246;BME280;39569;51.090;-1.786;2022-08-07T05:45:15;102072.88;;;12.20;76.15
53246;BME280;39569;51.090;-1.786;2022-08-07T05:47:43;102074.44;;;12.13;76.71
53246;BME280;39569;51.090;-1.786;2022-08-07T05:50:10;102068.19;;;12.22;76.09
53246;BME280;39569;51.090;-1.786;2022-08-07T05:52:37;102073.63;;;12.30;75.16
53246;BME280;39569;51.090;-1.786;2022-08-07T05:55:04;102071.47;;;12.33;75.16
53246;BME280;39569;51.090;-1.786;2022-08-07T05:57:33;102067.41;;;12.47;75.44
53246;BME280;39569;51.090;-1.786;2022-08-07T06:00:01;102071.66;;;12.49;74.77
53246;BME280;39569;51.090;-1.786;2022-08-07T06:02:32;102073.63;;;12.91;73.09
53246;BME280;39569;51.090;-1.786;2022-08-07T06:05:01;102076.81;;;12.86;73.06
53246;BME280;39569;51.090;-1.786;2022-08-07T06:07:28;102079.34;;;12.70;74.27
53246;BME280;39569;51.090;-1.786;2022-08-07T06:09:56;102081.84;;;12.89;73.95
53246;BME280;39569;51.090;-1.786;2022-08-07T06:12:23;102073.63;;;13.08;73.54
53246;BME280;39569;51.090;-1.786;2022-08-07T06:14:49;102081.47;;;13.27;72.40
53246;BME280;39569;51.090;-1.786;2022-08-07T06:17:18;102080.09;;;13.57;71.21
53246;BME280;39569;51.090;-1.786;2022-08-07T06:19:46;102072.50;;;14.92;67.24
53246;BME280;39569;51.090;-1.786;2022-08-07T06:22:15;102064.81;;;16.75;60.18
53246;BME280;39569;51.090;-1.786;2022-08-07T06:24:42;102059.88;;;17.74;56.89
53246;BME280;39569;51.090;-1.786;2022-08-07T06:27:09;102061.75;;;18.44;54.03
53246;BME280;39569;51.090;-1.786;2022-08-07T06:29:36;102058.66;;;19.17;51.76
53246;BME280;39569;51.090;-1.786;2022-08-07T06:32:03;102055.66;;;19.68;51.46
53246;BME280;39569;51.090;-1.786;2022-08-07T06:34:30;102057.34;;;19.82;50.99
53246;BME280;39569;51.090;-1.786;2022-08-07T06:36:58;102056.19;;;20.04;50.71
53246;BME280;39569;51.090;-1.786;2022-08-07T06:39:25;102048.63;;;19.86;50.82
53246;BME280;39569;51.090;-1.786;2022-08-07T06:41:56;102058.00;;;20.57;48.92
53246;BME280;39569;51.090;-1.786;2022-08-07T06:44:26;102051.97;;;20.81;48.32
53246;BME280;39569;51.090;-1.786;2022-08-07T06:46:53;102059.06;;;20.76;48.20
53246;BME280;39569;51.090;-1.786;2022-08-07T06:49:20;102057.63;;;20.00;50.45
53246;BME280;39569;51.090;-1.786;2022-08-07T06:51:47;102067.03;;;19.01;53.60
53246;BME280;39569;51.090;-1.786;2022-08-07T06:54:17;102062.66;;;18.51;54.65
53246;BME280;39569;51.090;-1.786;2022-08-07T06:56:45;102061.09;;;18.21;56.20
53246;BME280;39569;51.090;-1.786;2022-08-07T06:59:17;102058.22;;;18.86;54.99
53246;BME280;39569;51.090;-1.786;2022-08-07T07:01:46;102052.22;;;17.92;57.07
53246;BME280;39569;51.090;-1.786;2022-08-07T07:04:14;102052.06;;;17.79;58.15
53246;BME280;39569;51.090;-1.786;2022-08-07T07:06:42;102063.59;;;18.23;56.07
53246;BME280;39569;51.090;-1.786;2022-08-07T07:09:20;102067.31;;;18.22;56.56
53246;BME280;39569;51.090;-1.786;2022-08-07T07:12:00;102066.84;;;17.97;57.06
53246;BME280;39569;51.090;-1.786;2022-08-07T07:14:33;102065.09;;;18.11;56.14
53246;BME280;39569;51.090;-1.786;2022-08-07T07:17:05;102066.22;;;18.52;55.05
53246;BME280;39569;51.090;-1.786;2022-08-07T07:19:38;102061.91;;;18.57;54.34
53246;BME280;39569;51.090;-1.786;2022-08-07T07:22:06;102066.88;;;19.03;53.32
53246;BME280;39569;51.090;-1.786;2022-08-07T07:24:36;102066.13;;;18.67;55.00
53246;BME280;39569;51.090;-1.786;2022-08-07T07:27:04;102065.34;;;18.30;54.97
53246;BME280;39569;51.090;-1.786;2022-08-07T07:29:37;102065.41;;;18.37;55.49
53246;BME280;39569;51.090;-1.786;2022-08-07T07:32:07;102065.81;;;18.55;54.99
53246;BME280;39569;51.090;-1.786;2022-08-07T07:34:37;102064.81;;;19.32;52.59
53246;BME280;39569;51.090;-1.786;2022-08-07T07:37:06;102058.84;;;19.91;50.86
53246;BME280;39569;51.090;-1.786;2022-08-07T07:39:36;102059.88;;;20.96;47.78
53246;BME280;39569;51.090;-1.786;2022-08-07T07:42:04;102054.69;;;21.97;44.88
53246;BME280;39569;51.090;-1.786;2022-08-07T07:44:32;102052.63;;;22.62;43.73
53246;BME280;39569;51.090;-1.786;2022-08-07T07:47:02;102051.56;;;23.73;41.23
53246;BME280;39569;51.090;-1.786;2022-08-07T07:49:30;102057.06;;;22.18;44.30
53246;BME280;39569;51.090;-1.786;2022-08-07T07:52:00;102060.91;;;23.22;42.21
53246;BME280;39569;51.090;-1.786;2022-08-07T07:54:28;102051.09;;;24.23;39.75
53246;BME280;39569;51.090;-1.786;2022-08-07T07:56:57;102053.81;;;24.23;40.00
53246;BME280;39569;51.090;-1.786;2022-08-07T07:59:25;102054.50;;;24.07;40.38
53246;BME280;39569;51.090;-1.786;2022-08-07T08:01:54;102056.16;;;24.79;39.76
53246;BME280;39569;51.090;-1.786;2022-08-07T08:04:22;102062.34;;;24.98;39.08
53246;BME280;39569;51.090;-1.786;2022-08-07T08:06:52;102054.31;;;24.62;38.69
53246;BME280;39569;51.090;-1.786;2022-08-07T08:09:21;102050.69;;;24.91;38.88
53246;BME280;39569;51.090;-1.786;2022-08-07T08:11:50;102048.47;;;26.25;36.18
53246;BME280;39569;51.090;-1.786;2022-08-07T08:14:18;102064.03;;;24.99;38.28
53246;BME280;39569;51.090;-1.786;2022-08-07T08:16:46;102051.84;;;26.15;36.93
53246;BME280;39569;51.090;-1.786;2022-08-07T08:19:15;102049.91;;;26.44;35.27
53246;BME280;39569;51.090;-1.786;2022-08-07T08:21:46;102050.09;;;26.54;35.41
53246;BME280;39569;51.090;-1.786;2022-08-07T08:24:41;102044.13;;;27.83;32.99
53246;BME280;39569;51.090;-1.786;2022-08-07T08:27:28;102045.94;;;27.35;34.00
53246;BME280;39569;51.090;-1.786;2022-08-07T08:30:02;102046.16;;;26.95;33.72
53246;BME280;39569;51.090;-1.786;2022-08-07T08:32:31;102039.81;;;27.49;32.40
53246;BME280;39569;51.090;-1.786;2022-08-07T08:35:00;102042.28;;;26.46;34.21
53246;BME280;39569;51.090;-1.786;2022-08-07T08:37:30;102042.47;;;27.06;33.08
53246;BME280;39569;51.090;-1.786;2022-08-07T08:40:00;102041.63;;;27.05;33.66
53246;BME280;39569;51.090;-1.786;2022-08-07T08:42:32;102033.75;;;28.65;30.17
53246;BME280;39569;51.090;-1.786;2022-08-07T08:45:10;102038.53;;;29.63;29.29
53246;BME280;39569;51.090;-1.786;2022-08-07T08:47:43;102034.28;;;28.99;29.16
53246;BME280;39569;51.090;-1.786;2022-08-07T08:50:16;102029.59;;;28.99;28.82
53246;BME280;39569;51.090;-1.786;2022-08-07T08:52:49;102028.22;;;29.39;28.13
53246;BME280;39569;51.090;-1.786;2022-08-07T08:55:21;102030.09;;;29.75;27.77
53246;BME280;39569;51.090;-1.786;2022-08-07T08:57:57;102029.38;;;29.06;27.35
53246;BME280;39569;51.090;-1.786;2022-08-07T09:00:37;102026.50;;;29.79;26.86
53246;BME280;39569;51.090;-1.786;2022-08-07T09:03:11;102017.84;;;30.78;25.79
53246;BME280;39569;51.090;-1.786;2022-08-07T09:05:47;102019.97;;;29.44;27.09
53246;BME280;39569;51.090;-1.786;2022-08-07T09:08:24;102012.59;;;30.86;25.57
53246;BME280;39569;51.090;-1.786;2022-08-07T09:11:03;102016.41;;;30.25;25.82
53246;BME280;39569;51.090;-1.786;2022-08-07T09:13:37;102018.91;;;29.50;26.68
53246;BME280;39569;51.090;-1.786;2022-08-07T09:16:11;102008.44;;;30.79;25.13
53246;BME280;39569;51.090;-1.786;2022-08-07T09:18:55;102007.09;;;30.86;25.65
53246;BME280;39569;51.090;-1.786;2022-08-07T09:21:32;102006.38;;;31.55;24.27
53246;BME280;39569;51.090;-1.786;2022-08-07T09:24:04;102000.78;;;32.19;23.00
53246;BME280;39569;51.090;-1.786;2022-08-07T09:26:38;101998.22;;;31.10;24.48
53246;BME280;39569;51.090;-1.786;2022-08-07T09:29:15;101995.56;;;31.58;23.60
53246;BME280;39569;51.090;-1.786;2022-08-07T09:31:54;101989.72;;;30.71;25.30
53246;BME280;39569;51.090;-1.786;2022-08-07T09:34:24;102002.94;;;30.69;25.04
53246;BME280;39569;51.090;-1.786;2022-08-07T09:36:59;101995.25;;;31.75;23.69
53246;BME280;39569;51.090;-1.786;2022-08-07T09:39:38;101991.13;;;32.83;22.66
53246;BME280;39569;51.090;-1.786;2022-08-07T09:42:19;101988.66;;;32.15;23.34
53246;BME280;39569;51.090;-1.786;2022-08-07T09:44:55;101987.56;;;31.57;23.48
53246;BME280;39569;51.090;-1.786;2022-08-07T09:47:32;101988.72;;;31.46;23.93
53246;BME280;39569;51.090;-1.786;2022-08-07T09:50:07;101978.22;;;32.02;22.92
53246;BME280;39569;51.090;-1.786;2022-08-07T09:52:41;101977.31;;;31.62;23.43
53246;BME280;39569;51.090;-1.786;2022-08-07T09:55:15;101976.13;;;32.90;22.33
53246;BME280;39569;51.090;-1.786;2022-08-07T09:58:11;101978.88;;;32.61;22.17
53246;BME280;39569;51.090;-1.786;2022-08-07T10:00:56;101970.44;;;32.76;21.65
53246;BME280;39569;51.090;-1.786;2022-08-07T10:03:33;101972.19;;;31.41;22.73
53246;BME280;39569;51.090;-1.786;2022-08-07T10:06:22;101970.63;;;32.22;21.66
53246;BME280;39569;51.090;-1.786;2022-08-07T10:12:09;101966.94;;;33.18;21.57
53246;BME280;39569;51.090;-1.786;2022-08-07T10:18:04;101966.09;;;33.22;21.06
53246;BME280;39569;51.090;-1.786;2022-08-07T10:20:41;101960.75;;;32.78;23.31
53246;BME280;39569;51.090;-1.786;2022-08-07T10:23:33;101953.66;;;34.04;21.40
53246;BME280;39569;51.090;-1.786;2022-08-07T10:26:15;101948.06;;;33.67;20.99
53246;BME280;39569;51.090;-1.786;2022-08-07T10:29:09;101945.16;;;33.96;20.49
53246;BME280;39569;51.090;-1.786;2022-08-07T10:32:08;101940.91;;;34.67;20.22
53246;BME280;39569;51.090;-1.786;2022-08-07T10:34:53;101939.66;;;33.53;20.72
53246;BME280;39569;51.090;-1.786;2022-08-07T10:37:37;101955.78;;;32.75;21.62
53246;BME280;39569;51.090;-1.786;2022-08-07T10:40:11;101945.59;;;34.53;19.84
53246;BME280;39569;51.090;-1.786;2022-08-07T10:42:44;101944.88;;;35.07;19.30
53246;BME280;39569;51.090;-1.786;2022-08-07T10:45:18;101942.75;;;33.70;21.08
53246;BME280;39569;51.090;-1.786;2022-08-07T10:47:58;101936.81;;;33.58;21.14
53246;BME280;39569;51.090;-1.786;2022-08-07T10:50:34;101936.31;;;34.77;19.76
53246;BME280;39569;51.090;-1.786;2022-08-07T10:53:10;101935.06;;;34.83;19.09
53246;BME280;39569;51.090;-1.786;2022-08-07T10:55:45;101931.47;;;33.43;20.84
53246;BME280;39569;51.090;-1.786;2022-08-07T10:58:22;101931.00;;;35.21;19.46
53246;BME280;39569;51.090;-1.786;2022-08-07T11:01:08;101926.31;;;34.76;19.79
53246;BME280;39569;51.090;-1.786;2022-08-07T11:03:42;101920.63;;;34.53;20.83
53246;BME280;39569;51.090;-1.786;2022-08-07T11:06:18;101925.50;;;33.73;20.47
53246;BME280;39569;51.090;-1.786;2022-08-07T11:08:55;101933.97;;;32.98;21.73
53246;BME280;39569;51.090;-1.786;2022-08-07T11:11:30;101919.84;;;35.34;19.14
53246;BME280;39569;51.090;-1.786;2022-08-07T11:14:02;101913.97;;;33.85;20.03
53246;BME280;39569;51.090;-1.786;2022-08-07T11:16:35;101915.09;;;34.21;19.89
53246;BME280;39569;51.090;-1.786;2022-08-07T11:19:08;101912.09;;;31.08;22.67
53246;BME280;39569;51.090;-1.786;2022-08-07T11:21:41;101907.69;;;33.61;21.13
53246;BME280;39569;51.090;-1.786;2022-08-07T11:24:16;101898.13;;;34.68;19.81
53246;BME280;39569;51.090;-1.786;2022-08-07T11:26:50;101897.56;;;33.70;19.80
53246;BME280;39569;51.090;-1.786;2022-08-07T11:29:25;101890.78;;;34.13;19.56
53246;BME280;39569;51.090;-1.786;2022-08-07T11:32:07;101887.44;;;34.30;19.46
53246;BME280;39569;51.090;-1.786;2022-08-07T11:34:40;101891.25;;;35.34;19.16
53246;BME280;39569;51.090;-1.786;2022-08-07T11:37:21;101886.91;;;33.77;20.05
53246;BME280;39569;51.090;-1.786;2022-08-07T11:40:04;101887.03;;;34.68;18.83
53246;BME280;39569;51.090;-1.786;2022-08-07T11:42:43;101889.81;;;34.36;19.72
53246;BME280;39569;51.090;-1.786;2022-08-07T11:45:25;101885.47;;;34.62;19.45
53246;BME280;39569;51.090;-1.786;2022-08-07T11:50:58;101876.09;;;33.38;20.21
53246;BME280;39569;51.090;-1.786;2022-08-07T11:53:36;101880.78;;;33.99;20.29
53246;BME280;39569;51.090;-1.786;2022-08-07T11:56:18;101872.59;;;34.94;19.47
53246;BME280;39569;51.090;-1.786;2022-08-07T11:58:57;101878.44;;;34.38;19.93
53246;BME280;39569;51.090;-1.786;2022-08-07T12:01:39;101867.72;;;33.43;20.06
53246;BME280;39569;51.090;-1.786;2022-08-07T12:04:21;101870.94;;;33.32;20.55
53246;BME280;39569;51.090;-1.786;2022-08-07T12:06:58;101868.53;;;34.32;19.56
53246;BME280;39569;51.090;-1.786;2022-08-07T12:09:34;101868.41;;;33.91;19.75
53246;BME280;39569;51.090;-1.786;2022-08-07T12:12:06;101871.28;;;35.05;18.65
53246;BME280;39569;51.090;-1.786;2022-08-07T12:14:43;101861.91;;;34.14;19.25
53246;BME280;39569;51.090;-1.786;2022-08-07T12:17:13;101864.38;;;33.65;20.72
53246;BME280;39569;51.090;-1.786;2022-08-07T12:19:48;101868.19;;;33.88;19.89
53246;BME280;39569;51.090;-1.786;2022-08-07T12:22:27;101864.38;;;35.16;18.49
53246;BME280;39569;51.090;-1.786;2022-08-07T12:25:05;101852.94;;;35.31;18.60
53246;BME280;39569;51.090;-1.786;2022-08-07T12:27:57;101858.63;;;33.61;21.01
53246;BME280;39569;51.090;-1.786;2022-08-07T12:30:33;101857.34;;;34.05;19.69
53246;BME280;39569;51.090;-1.786;2022-08-07T12:33:04;101863.03;;;32.49;22.17
53246;BME280;39569;51.090;-1.786;2022-08-07T12:35:33;101851.50;;;35.20;20.40
53246;BME280;39569;51.090;-1.786;2022-08-07T12:38:01;101845.06;;;34.56;19.37
53246;BME280;39569;51.090;-1.786;2022-08-07T12:40:31;101842.94;;;33.70;19.96
53246;BME280;39569;51.090;-1.786;2022-08-07T12:43:03;101845.25;;;34.14;19.69
53246;BME280;39569;51.090;-1.786;2022-08-07T12:45:38;101839.28;;;34.94;18.60
53246;BME280;39569;51.090;-1.786;2022-08-07T12:48:13;101850.06;;;35.36;19.02
53246;BME280;39569;51.090;-1.786;2022-08-07T12:50:49;101844.09;;;35.29;18.37
53246;BME280;39569;51.090;-1.786;2022-08-07T12:53:22;101838.19;;;34.95;19.04
53246;BME280;39569;51.090;-1.786;2022-08-07T12:55:57;101828.00;;;33.29;21.36
53246;BME280;39569;51.090;-1.786;2022-08-07T12:58:32;101834.16;;;33.26;19.96
53246;BME280;39569;51.090;-1.786;2022-08-07T13:01:06;101831.97;;;33.05;20.16
53246;BME280;39569;51.090;-1.786;2022-08-07T13:03:59;101827.66;;;33.36;20.89
53246;BME280;39569;51.090;-1.786;2022-08-07T13:06:43;101827.06;;;34.54;20.11
53246;BME280;39569;51.090;-1.786;2022-08-07T13:09:16;101828.31;;;33.28;20.63
53246;BME280;39569;51.090;-1.786;2022-08-07T13:11:52;101817.50;;;33.50;20.26
53246;BME280;39569;51.090;-1.786;2022-08-07T13:14:32;101825.94;;;34.09;19.78